createdAt,value
2023-04-22T00:00:42.813Z,17.47
2023-04-22T00:03:18.566Z,17.73
2023-04-22T00:05:46.788Z,17.67
2023-04-22T00:08:14.021Z,15.90
2023-04-22T00:10:41.830Z,16.33
2023-04-22T00:13:09.340Z,13.90
2023-04-22T00:15:37.105Z,17.30
2023-04-22T00:18:04.796Z,15.13
2023-04-22T00:20:33.054Z,13.53
2023-04-22T00:23:00.065Z,14.33
2023-04-22T00:25:27.824Z,13.10
2023-04-22T00:27:55.328Z,14.30
2023-04-22T00:30:22.641Z,13.47
2023-04-22T00:32:50.292Z,17.33
2023-04-22T00:35:18.229Z,13.87
2023-04-22T00:37:45.355Z,13.70
2023-04-22T00:40:12.889Z,12.40
2023-04-22T00:42:41.371Z,15.97
2023-04-22T00:45:12.082Z,20.80
2023-04-22T00:47:39.626Z,24.47
2023-04-22T00:50:07.815Z,18.33
2023-04-22T00:52:34.855Z,12.90
2023-04-22T00:55:02.474Z,15.17
2023-04-22T00:57:33.612Z,14.20
2023-04-22T01:00:01.481Z,12.90
2023-04-22T01:02:29.875Z,12.53
2023-04-22T01:04:59.731Z,14.20
2023-04-22T01:07:27.295Z,16.67
2023-04-22T01:09:55.118Z,16.30
2023-04-22T01:12:22.633Z,17.97
2023-04-22T01:14:50.654Z,13.33
2023-04-22T01:17:19.461Z,17.67
2023-04-22T01:19:47.592Z,18.93
2023-04-22T01:22:15.347Z,20.40
2023-04-22T01:24:43.720Z,17.53
2023-04-22T01:27:12.055Z,21.70
2023-04-22T01:29:39.988Z,20.93
2023-04-22T01:32:07.780Z,18.47
2023-04-22T01:34:35.356Z,19.47
2023-04-22T01:37:02.893Z,19.27
2023-04-22T01:39:30.911Z,14.60
2023-04-22T01:41:58.777Z,18.67
2023-04-22T01:44:27.027Z,17.40
2023-04-22T01:46:54.580Z,17.23
2023-04-22T01:49:22.592Z,16.27
2023-04-22T01:51:51.523Z,18.37
2023-04-22T01:54:21.392Z,19.17
2023-04-22T01:56:55.193Z,16.90
2023-04-22T01:59:23.761Z,19.10
2023-04-22T02:01:51.450Z,18.17
2023-04-22T02:04:20.120Z,19.97
2023-04-22T02:06:47.610Z,25.57
2023-04-22T02:09:15.655Z,23.57
2023-04-22T02:11:43.095Z,19.97
2023-04-22T02:14:10.830Z,19.40
2023-04-22T02:16:37.945Z,20.50
2023-04-22T02:19:05.655Z,22.63
2023-04-22T02:21:34.285Z,21.97
2023-04-22T02:24:02.073Z,21.20
2023-04-22T02:26:30.870Z,20.63
2023-04-22T02:28:59.144Z,25.07
2023-04-22T02:31:27.738Z,22.40
2023-04-22T02:33:55.894Z,23.10
2023-04-22T02:36:23.431Z,22.50
2023-04-22T02:38:51.660Z,23.23
2023-04-22T02:41:18.744Z,22.33
2023-04-22T02:43:46.554Z,22.93
2023-04-22T02:46:16.315Z,25.33
2023-04-22T02:48:44.338Z,22.93
2023-04-22T02:51:12.041Z,25.07
2023-04-22T02:53:39.880Z,20.20
2023-04-22T02:56:08.549Z,21.90
2023-04-22T02:58:36.498Z,22.37
2023-04-22T03:01:04.311Z,23.90
2023-04-22T03:03:32.342Z,26.00
2023-04-22T03:06:00.410Z,28.43
2023-04-22T03:08:28.395Z,28.07
2023-04-22T03:10:55.636Z,25.83
2023-04-22T03:13:23.675Z,31.30
2023-04-22T03:15:51.863Z,27.70
2023-04-22T03:18:20.499Z,26.07
2023-04-22T03:20:48.282Z,24.63
2023-04-22T03:23:16.230Z,26.90
2023-04-22T03:25:43.721Z,26.73
2023-04-22T03:28:11.596Z,26.20
2023-04-22T03:30:39.066Z,25.80
2023-04-22T03:33:07.068Z,25.13
2023-04-22T03:35:42.911Z,24.77
2023-04-22T03:38:12.446Z,30.73
2023-04-22T03:40:39.610Z,26.37
2023-04-22T03:43:17.853Z,30.77
2023-04-22T03:45:53.109Z,27.73
2023-04-22T03:48:24.925Z,28.33
2023-04-22T03:50:53.618Z,25.90
2023-04-22T03:53:21.030Z,28.77
2023-04-22T03:55:48.531Z,23.93
2023-04-22T03:58:18.304Z,23.63
2023-04-22T04:00:46.564Z,27.90
2023-04-22T04:03:17.334Z,21.73
2023-04-22T04:05:48.049Z,24.97
2023-04-22T04:08:15.983Z,22.37
2023-04-22T04:10:43.946Z,21.93
2023-04-22T04:13:11.749Z,25.27
2023-04-22T04:16:00.439Z,23.67
2023-04-22T04:18:29.875Z,25.80
2023-04-22T04:20:57.496Z,22.83
2023-04-22T04:23:28.325Z,25.77
2023-04-22T04:25:55.839Z,22.87
2023-04-22T04:28:23.321Z,19.77
2023-04-22T04:30:50.461Z,23.47
2023-04-22T04:33:18.149Z,23.73
2023-04-22T04:35:48.091Z,22.40
2023-04-22T04:38:19.682Z,25.30
2023-04-22T04:40:51.052Z,27.47
2023-04-22T04:43:26.091Z,25.33
2023-04-22T04:46:21.471Z,22.43
2023-04-22T04:48:50.783Z,26.20
2023-04-22T04:51:20.368Z,23.17
2023-04-22T04:53:55.419Z,24.73
2023-04-22T04:56:23.943Z,22.30
2023-04-22T04:58:52.580Z,25.50
2023-04-22T05:01:23.725Z,30.43
2023-04-22T05:03:52.553Z,21.63
2023-04-22T05:06:21.589Z,25.30
2023-04-22T05:09:03.582Z,28.03
2023-04-22T05:11:30.901Z,26.33
2023-04-22T05:14:00.811Z,28.47
2023-04-22T05:16:33.240Z,27.17
2023-04-22T05:19:01.332Z,25.93
2023-04-22T05:21:28.577Z,31.73
2023-04-22T05:23:58.134Z,30.43
2023-04-22T05:26:26.036Z,33.13
2023-04-22T05:28:53.881Z,40.07
2023-04-22T05:31:22.238Z,30.40
2023-04-22T05:33:49.688Z,26.00
2023-04-22T05:36:17.270Z,27.30
2023-04-22T05:38:47.199Z,31.07
2023-04-22T05:41:15.785Z,28.13
2023-04-22T05:43:43.580Z,27.57
2023-04-22T05:46:15.890Z,27.70
2023-04-22T05:48:44.891Z,29.07
2023-04-22T05:51:32.955Z,23.47
2023-04-22T05:54:00.503Z,20.57
2023-04-22T05:56:27.871Z,27.80
2023-04-22T05:58:55.701Z,20.77
2023-04-22T06:01:24.998Z,23.17
2023-04-22T06:03:58.023Z,21.33
2023-04-22T06:06:26.249Z,16.63
2023-04-22T06:08:53.964Z,15.60
2023-04-22T06:11:21.098Z,17.40
2023-04-22T06:13:48.504Z,15.40
2023-04-22T06:16:16.491Z,13.20
2023-04-22T06:18:43.991Z,12.57
2023-04-22T06:21:12.470Z,11.97
2023-04-22T06:23:40.690Z,11.57
2023-04-22T06:26:08.264Z,11.40
2023-04-22T06:28:37.656Z,13.50
2023-04-22T06:31:10.441Z,12.50
2023-04-22T06:33:38.114Z,10.05
2023-04-22T06:36:06.141Z,11.98
2023-04-22T06:38:35.197Z,14.45
2023-04-22T06:41:22.577Z,14.52
2023-04-22T06:43:51.826Z,13.13
2023-04-22T06:46:19.045Z,13.82
2023-04-22T06:48:52.591Z,11.80
2023-04-22T06:51:49.157Z,23.45
2023-04-22T06:54:16.781Z,10.15
2023-04-22T06:56:44.862Z,9.63
2023-04-22T06:59:12.586Z,14.70
2023-04-22T07:01:39.864Z,10.73
2023-04-22T07:04:08.070Z,12.25
2023-04-22T07:06:35.891Z,11.48
2023-04-22T07:09:04.273Z,8.63
2023-04-22T07:11:32.069Z,10.25
2023-04-22T07:14:06.773Z,11.27
2023-04-22T07:16:34.081Z,14.05
2023-04-22T07:19:01.730Z,10.82
2023-04-22T07:21:29.139Z,8.95
2023-04-22T07:23:56.678Z,14.75
2023-04-22T07:26:24.397Z,12.90
2023-04-22T07:28:52.218Z,14.07
2023-04-22T07:31:19.507Z,12.88
2023-04-22T07:33:46.893Z,7.10
2023-04-22T07:36:14.112Z,10.52
2023-04-22T07:38:41.602Z,9.60
2023-04-22T07:41:08.825Z,9.82
2023-04-22T07:43:37.240Z,11.40
2023-04-22T07:46:04.661Z,9.90
2023-04-22T07:48:32.232Z,13.13
2023-04-22T07:50:59.518Z,13.32
2023-04-22T07:53:27.097Z,11.55
2023-04-22T07:55:55.596Z,14.48
2023-04-22T07:58:23.312Z,15.15
2023-04-22T08:00:50.516Z,14.38
2023-04-22T08:03:18.307Z,10.20
2023-04-22T08:05:45.822Z,8.27
2023-04-22T08:08:13.327Z,9.65
2023-04-22T08:10:40.614Z,8.30
2023-04-22T08:13:08.150Z,8.77
2023-04-22T08:15:35.534Z,8.95
2023-04-22T08:18:03.558Z,8.13
2023-04-22T08:20:30.902Z,8.13
2023-04-22T08:23:00.661Z,9.23
2023-04-22T08:25:28.598Z,6.97
2023-04-22T08:27:56.328Z,8.68
2023-04-22T08:30:23.824Z,9.52
2023-04-22T08:32:53.486Z,9.18
2023-04-22T08:35:20.944Z,7.30
2023-04-22T08:37:48.749Z,8.02
2023-04-22T08:40:15.876Z,11.90
2023-04-22T08:42:44.587Z,6.82
2023-04-22T08:45:13.302Z,9.30
2023-04-22T08:47:41.443Z,12.85
2023-04-22T08:50:10.892Z,10.32
2023-04-22T08:52:38.634Z,7.65
2023-04-22T08:55:06.527Z,8.55
2023-04-22T08:57:36.068Z,6.50
2023-04-22T09:00:05.431Z,13.63
2023-04-22T09:02:35.379Z,6.28
2023-04-22T09:05:03.615Z,8.10
2023-04-22T09:07:32.617Z,5.47
2023-04-22T09:10:00.411Z,7.85
2023-04-22T09:12:28.959Z,3.90
2023-04-22T09:14:57.582Z,9.32
2023-04-22T09:17:33.409Z,5.10
2023-04-22T09:20:02.650Z,8.18
2023-04-22T09:22:41.538Z,7.97
2023-04-22T09:25:16.798Z,5.72
2023-04-22T09:27:44.732Z,8.98
2023-04-22T09:30:13.856Z,9.20
2023-04-22T09:32:41.326Z,9.45
2023-04-22T09:35:09.718Z,50.58
2023-04-22T09:37:48.487Z,6.50
2023-04-22T09:40:18.324Z,5.15
2023-04-22T09:42:53.102Z,7.53
2023-04-22T09:45:31.297Z,5.10
2023-04-22T09:48:06.438Z,7.47
2023-04-22T09:50:33.573Z,4.05
2023-04-22T09:53:04.645Z,5.45
2023-04-22T09:55:38.028Z,9.02
2023-04-22T09:58:12.536Z,6.78
2023-04-22T10:00:47.744Z,7.15
2023-04-22T10:03:16.583Z,8.65
2023-04-22T10:05:46.259Z,12.40
2023-04-22T10:08:15.593Z,4.35
2023-04-22T10:10:43.095Z,8.80
2023-04-22T10:13:10.679Z,7.45
2023-04-22T10:15:44.577Z,6.40
2023-04-22T10:18:14.937Z,8.02
2023-04-22T10:20:43.463Z,6.07
2023-04-22T10:23:18.893Z,10.50
2023-04-22T10:25:58.555Z,24.25
2023-04-22T10:28:29.432Z,13.32
2023-04-22T10:30:57.959Z,5.28
2023-04-22T10:33:27.775Z,7.38
2023-04-22T10:36:16.560Z,5.43
2023-04-22T10:38:50.170Z,4.82
2023-04-22T10:41:23.805Z,7.60
2023-04-22T10:43:59.283Z,8.30
2023-04-22T10:46:39.970Z,5.03
2023-04-22T10:49:13.100Z,6.15
2023-04-22T10:51:40.803Z,4.47
2023-04-22T10:54:36.550Z,6.00
2023-04-22T10:57:12.119Z,6.43
2023-04-22T10:59:52.260Z,6.63
2023-04-22T11:02:20.931Z,6.13
2023-04-22T11:04:49.538Z,3.88
2023-04-22T11:07:29.739Z,3.42
2023-04-22T11:10:10.733Z,5.55
2023-04-22T11:12:42.335Z,6.05
2023-04-22T11:15:15.369Z,8.32
2023-04-22T11:17:45.342Z,12.15
2023-04-22T11:20:17.323Z,4.78
2023-04-22T11:22:47.211Z,6.07
2023-04-22T11:25:14.950Z,9.43
2023-04-22T11:27:45.362Z,3.67
2023-04-22T11:30:18.702Z,2.95
2023-04-22T11:32:54.011Z,3.00
2023-04-22T11:35:27.779Z,5.22
2023-04-22T11:38:01.052Z,7.40
2023-04-22T11:40:35.870Z,3.30
2023-04-22T11:43:07.070Z,24.55
2023-04-22T11:45:36.400Z,3.95
2023-04-22T11:48:05.820Z,4.20
2023-04-22T11:50:36.024Z,4.20
2023-04-22T11:53:05.172Z,5.43
2023-04-22T11:55:35.453Z,3.50
2023-04-22T11:58:25.365Z,5.55
2023-04-22T12:00:54.550Z,4.70
2023-04-22T12:03:27.039Z,2.97
2023-04-22T12:06:01.376Z,9.32
2023-04-22T12:08:34.415Z,6.78
2023-04-22T12:11:07.159Z,3.28
2023-04-22T12:13:43.961Z,3.10
2023-04-22T12:16:29.602Z,4.38
2023-04-22T12:18:56.722Z,4.85
2023-04-22T12:21:26.042Z,8.02
2023-04-22T12:24:08.215Z,2.45
2023-04-22T12:26:38.176Z,2.90
2023-04-22T12:29:05.464Z,4.68
2023-04-22T12:31:33.221Z,6.30
2023-04-22T12:34:00.602Z,2.38
2023-04-22T12:36:28.272Z,29.50
2023-04-22T12:38:55.346Z,9.05
2023-04-22T12:41:23.836Z,5.85
2023-04-22T12:43:52.902Z,4.97
2023-04-22T12:46:21.103Z,4.55
2023-04-22T12:48:48.355Z,8.07
2023-04-22T12:51:16.227Z,6.40
2023-04-22T12:53:43.544Z,4.28
2023-04-22T12:56:10.961Z,4.20
2023-04-22T12:58:38.084Z,8.18
2023-04-22T13:01:05.591Z,6.93
2023-04-22T13:03:32.893Z,4.18
2023-04-22T13:06:00.526Z,6.38
2023-04-22T13:08:29.106Z,2.30
2023-04-22T13:10:56.581Z,4.18
2023-04-22T13:13:24.701Z,6.25
2023-04-22T13:15:58.187Z,8.77
2023-04-22T13:18:25.435Z,2.55
2023-04-22T13:20:55.157Z,9.57
2023-04-22T13:23:23.516Z,7.10
2023-04-22T13:25:51.766Z,5.72
2023-04-22T13:28:20.242Z,4.15
2023-04-22T13:30:47.835Z,10.57
2023-04-22T13:33:15.008Z,3.50
2023-04-22T13:35:43.016Z,4.43
2023-04-22T13:38:10.265Z,4.05
2023-04-22T13:40:37.695Z,4.30
2023-04-22T13:43:04.869Z,3.33
2023-04-22T13:45:32.924Z,7.78
2023-04-22T13:48:00.437Z,6.40
2023-04-22T13:50:28.291Z,22.02
2023-04-22T13:52:55.496Z,5.85
2023-04-22T13:55:23.146Z,4.28
2023-04-22T13:57:52.012Z,5.72
2023-04-22T14:00:20.867Z,3.53
2023-04-22T14:02:48.710Z,7.35
2023-04-22T14:05:16.660Z,4.30
2023-04-22T14:07:43.822Z,14.52
2023-04-22T14:10:13.222Z,4.55
2023-04-22T14:12:40.762Z,7.72
2023-04-22T14:15:11.135Z,4.38
2023-04-22T14:17:40.276Z,22.27
2023-04-22T14:20:09.792Z,6.63
2023-04-22T14:22:37.147Z,6.45
2023-04-22T14:25:04.912Z,11.27
2023-04-22T14:27:32.835Z,7.38
2023-04-22T14:30:01.300Z,20.73
2023-04-22T14:32:29.373Z,12.65
2023-04-22T14:34:56.845Z,8.13
2023-04-22T14:37:24.109Z,6.53
2023-04-22T14:39:51.871Z,28.75
2023-04-22T14:42:19.644Z,14.13
2023-04-22T14:44:47.278Z,6.35
2023-04-22T14:47:14.428Z,7.10
2023-04-22T14:49:42.115Z,9.10
2023-04-22T14:52:09.298Z,9.63
2023-04-22T14:54:36.946Z,8.77
2023-04-22T14:57:04.249Z,28.20
2023-04-22T14:59:31.631Z,8.25
2023-04-22T15:01:58.876Z,8.70
2023-04-22T15:04:26.719Z,11.30
2023-04-22T15:06:57.499Z,7.72
2023-04-22T15:09:25.333Z,7.72
2023-04-22T15:11:54.249Z,16.33
2023-04-22T15:14:22.048Z,9.90
2023-04-22T15:16:49.211Z,10.75
2023-04-22T15:19:16.719Z,11.73
2023-04-22T15:21:43.789Z,19.52
2023-04-22T15:24:11.353Z,7.20
2023-04-22T15:26:40.719Z,12.93
2023-04-22T15:29:08.165Z,8.38
2023-04-22T15:31:37.912Z,21.58
2023-04-22T15:34:06.637Z,14.02
2023-04-22T15:36:33.779Z,12.45
2023-04-22T15:39:01.487Z,12.32
2023-04-22T15:41:28.682Z,12.10
2023-04-22T15:43:56.011Z,9.10
2023-04-22T15:46:23.442Z,10.02
2023-04-22T15:48:50.892Z,9.35
2023-04-22T15:51:19.225Z,9.57
2023-04-22T15:53:46.690Z,7.60
2023-04-22T15:56:15.355Z,5.28
2023-04-22T15:58:42.665Z,13.27
2023-04-22T16:01:18.747Z,6.55
2023-04-22T16:03:48.984Z,8.32
2023-04-22T16:06:17.451Z,9.60
2023-04-22T16:08:45.703Z,8.45
2023-04-22T16:11:15.414Z,9.60
2023-04-22T16:13:43.449Z,8.75
2023-04-22T16:16:11.229Z,9.52
2023-04-22T16:18:39.025Z,10.10
2023-04-22T16:21:06.574Z,12.00
2023-04-22T16:23:34.780Z,8.70
2023-04-22T16:26:04.451Z,7.15
2023-04-22T16:28:32.761Z,13.13
2023-04-22T16:31:02.387Z,11.10
2023-04-22T16:33:29.861Z,10.13
2023-04-22T16:35:57.570Z,11.93
2023-04-22T16:38:25.348Z,11.70
2023-04-22T16:40:54.370Z,11.88
2023-04-22T16:43:22.082Z,22.45
2023-04-22T16:45:51.734Z,21.70
2023-04-22T16:48:19.243Z,13.98
2023-04-22T16:50:46.337Z,11.45
2023-04-22T16:53:13.806Z,11.23
2023-04-22T16:55:41.532Z,13.30
2023-04-22T16:58:09.019Z,20.10
2023-04-22T17:00:36.242Z,20.25
2023-04-22T17:03:04.217Z,18.92
2023-04-22T17:05:31.715Z,17.27
2023-04-22T17:07:59.672Z,21.00
2023-04-22T17:10:27.739Z,15.82
2023-04-22T17:12:55.500Z,14.00
2023-04-22T17:15:22.714Z,11.75
2023-04-22T17:17:50.376Z,12.52
2023-04-22T17:20:17.786Z,7.45
2023-04-22T17:22:46.287Z,9.48
2023-04-22T17:25:13.577Z,6.15
2023-04-22T17:27:41.032Z,9.93
2023-04-22T17:30:08.862Z,12.85
2023-04-22T17:32:37.001Z,11.30
2023-04-22T17:35:04.604Z,8.98
2023-04-22T17:37:32.093Z,13.48
2023-04-22T17:39:59.553Z,11.82
2023-04-22T17:42:38.722Z,12.50
2023-04-22T17:45:10.964Z,11.23
2023-04-22T17:47:41.176Z,5.20
2023-04-22T17:50:10.161Z,8.55
2023-04-22T17:52:37.805Z,7.13
2023-04-22T17:55:05.603Z,11.02
2023-04-22T17:57:33.318Z,18.23
2023-04-22T18:00:00.547Z,12.40
2023-04-22T18:02:28.352Z,15.52
2023-04-22T18:04:56.055Z,17.92
2023-04-22T18:07:24.093Z,24.88
2023-04-22T18:09:51.808Z,23.85
2023-04-22T18:12:21.023Z,17.23
2023-04-22T18:14:48.309Z,23.75
2023-04-22T18:17:20.090Z,14.38
2023-04-22T18:19:51.249Z,13.75
2023-04-22T18:22:19.622Z,14.30
2023-04-22T18:24:47.158Z,17.83
2023-04-22T18:27:14.777Z,19.98
2023-04-22T18:29:42.554Z,16.65
2023-04-22T18:32:11.370Z,14.73
2023-04-22T18:34:39.147Z,21.55
2023-04-22T18:37:07.390Z,23.00
2023-04-22T18:39:34.600Z,12.43
2023-04-22T18:42:03.017Z,17.95
2023-04-22T18:44:30.615Z,19.40
2023-04-22T18:46:58.587Z,21.10
2023-04-22T18:49:26.423Z,11.23
2023-04-22T18:51:54.313Z,13.73
2023-04-22T18:54:21.800Z,9.43
2023-04-22T18:56:49.336Z,11.77
2023-04-22T18:59:16.601Z,13.73
2023-04-22T19:01:44.537Z,8.00
2023-04-22T19:04:12.375Z,8.07
2023-04-22T19:06:41.543Z,11.57
2023-04-22T19:09:08.702Z,10.93
2023-04-22T19:11:36.294Z,11.10
2023-04-22T19:14:03.614Z,15.07
2023-04-22T19:16:31.145Z,11.00
2023-04-22T19:18:58.385Z,12.67
2023-04-22T19:21:27.144Z,10.40
2023-04-22T19:23:56.396Z,13.50
2023-04-22T19:26:32.619Z,21.37
2023-04-22T19:29:01.905Z,24.97
2023-04-22T19:31:30.854Z,17.40
2023-04-22T19:33:59.870Z,19.00
2023-04-22T19:36:36.486Z,20.63
2023-04-22T19:39:06.197Z,11.07
2023-04-22T19:41:34.660Z,12.27
2023-04-22T19:44:02.276Z,10.20
2023-04-22T19:46:29.897Z,14.07
2023-04-22T19:48:57.569Z,13.10
2023-04-22T19:51:25.152Z,16.37
2023-04-22T19:53:54.042Z,15.97
2023-04-22T19:56:21.761Z,17.20
2023-04-22T19:58:49.785Z,22.07
2023-04-22T20:01:17.655Z,17.27
2023-04-22T20:03:45.618Z,17.90
2023-04-22T20:06:15.125Z,15.93
2023-04-22T20:08:43.266Z,16.17
2023-04-22T20:11:12.061Z,18.17
2023-04-22T20:13:41.175Z,15.57
2023-04-22T20:16:10.019Z,18.73
2023-04-22T20:18:39.871Z,19.77
2023-04-22T20:21:12.106Z,17.27
2023-04-22T20:23:42.863Z,16.97
2023-04-22T20:26:14.669Z,21.77
2023-04-22T20:28:52.107Z,20.70
2023-04-22T20:31:22.591Z,21.33
2023-04-22T20:33:51.158Z,21.03
2023-04-22T20:36:24.562Z,19.87
2023-04-22T20:38:55.012Z,20.33
2023-04-22T20:41:24.754Z,20.93
2023-04-22T20:43:52.547Z,22.33
2023-04-22T20:46:22.808Z,28.20
2023-04-22T20:48:50.521Z,39.70
2023-04-22T20:51:18.331Z,37.13
2023-04-22T20:53:45.494Z,36.57
2023-04-22T20:56:13.330Z,45.97
2023-04-22T20:58:40.558Z,61.47
2023-04-22T21:01:09.204Z,51.83
2023-04-22T21:03:40.412Z,57.20
2023-04-22T21:06:09.267Z,56.83
2023-04-22T21:08:39.304Z,54.43
2023-04-22T21:11:07.614Z,56.23
2023-04-22T21:13:35.249Z,56.20
2023-04-22T21:16:04.406Z,50.67
2023-04-22T21:18:33.734Z,43.13
2023-04-22T21:21:04.875Z,51.37
2023-04-22T21:23:32.481Z,52.27
2023-04-22T21:26:02.088Z,86.57
2023-04-22T21:28:29.956Z,87.33
2023-04-22T21:30:58.194Z,98.03
2023-04-22T21:33:25.596Z,77.60
2023-04-22T21:35:53.319Z,55.83
2023-04-22T21:38:20.860Z,46.60
2023-04-22T21:40:48.252Z,54.03
2023-04-22T21:43:15.470Z,50.70
2023-04-22T21:45:42.881Z,66.93
2023-04-22T21:48:10.057Z,62.63
2023-04-22T21:50:37.934Z,50.70
2023-04-22T21:53:05.261Z,46.67
2023-04-22T21:55:32.634Z,43.70
2023-04-22T21:57:59.756Z,34.50
2023-04-22T22:00:27.376Z,37.10
2023-04-22T22:02:54.668Z,44.80
2023-04-22T22:05:22.430Z,81.13
2023-04-22T22:07:50.172Z,105.90
2023-04-22T22:10:22.832Z,102.67
2023-04-22T22:12:51.165Z,87.97
2023-04-22T22:15:18.946Z,76.63
2023-04-22T22:17:46.293Z,75.37
2023-04-22T22:20:20.373Z,64.80
2023-04-22T22:22:48.009Z,57.30
2023-04-22T22:25:16.820Z,55.87
2023-04-22T22:27:49.309Z,60.47
2023-04-22T22:30:19.017Z,69.27
2023-04-22T22:32:46.900Z,100.43
2023-04-22T22:35:14.545Z,104.47
2023-04-22T22:37:41.751Z,103.87
2023-04-22T22:40:10.269Z,95.13
2023-04-22T22:42:37.381Z,98.80
2023-04-22T22:45:08.351Z,79.43
2023-04-22T22:47:36.065Z,61.97
2023-04-22T22:50:03.866Z,59.37
2023-04-22T22:52:32.311Z,56.27
2023-04-22T22:54:59.904Z,45.60
2023-04-22T22:57:27.142Z,45.17
2023-04-22T22:59:54.627Z,41.07
2023-04-22T23:02:21.865Z,38.07
2023-04-22T23:04:49.563Z,41.57
2023-04-22T23:07:17.771Z,38.27
2023-04-22T23:09:45.347Z,35.53
2023-04-22T23:12:12.806Z,36.10
2023-04-22T23:14:41.345Z,35.57
2023-04-22T23:17:09.178Z,38.60
2023-04-22T23:19:36.950Z,35.23
2023-04-22T23:22:06.931Z,37.53
2023-04-22T23:24:34.837Z,32.33
2023-04-22T23:27:02.293Z,30.43
2023-04-22T23:29:30.066Z,27.93
2023-04-22T23:32:00.760Z,32.10
2023-04-22T23:34:31.311Z,26.03
2023-04-22T23:36:59.048Z,23.23
2023-04-22T23:39:26.433Z,18.40
2023-04-22T23:41:53.536Z,21.20
2023-04-22T23:44:21.008Z,18.50
2023-04-22T23:46:48.299Z,23.13
2023-04-22T23:49:15.947Z,23.13
2023-04-22T23:51:43.890Z,22.17
2023-04-22T23:54:11.635Z,23.17
2023-04-22T23:56:39.118Z,27.90
2023-04-22T23:59:07.322Z,29.87
